Time;durP1;ratioP1;P1;durP2;ratioP2;P2;SDS_P1;SDS_P2;PMS_P1;PMS_P2;Temp;Humidity;BMP_temperature;BMP_pressure;BME280_temperature;BME280_humidity;BME280_pressure;Samples;Min_cycle;Max_cycle;Signal;HPM_P1;HPM_P2
2023/07/07 00:01:07;;;;;;;8.30;5.82;;;11.10;99.90;;;;;;5075412;28;20131;-48
2023/07/07 00:03:34;;;;;;;8.05;6.13;;;10.90;99.90;;;;;;5076334;28;20050;-47
2023/07/07 00:06:00;;;;;;;11.85;5.75;;;9.70;99.90;;;;;;5075798;28;20067;-46
2023/07/07 00:08:26;;;;;;;7.03;5.43;;;11.00;99.90;;;;;;5074382;28;20507;-46
2023/07/07 00:10:52;;;;;;;10.40;6.32;;;10.90;99.90;;;;;;5075014;28;20259;-48
2023/07/07 00:13:18;;;;;;;9.80;6.95;;;11.00;99.90;;;;;;5074547;28;20131;-47
2023/07/07 00:15:44;;;;;;;10.00;6.30;;;11.00;99.90;;;;;;5075421;28;20126;-47
2023/07/07 00:18:15;;;;;;;9.70;6.53;;;11.00;99.90;;;;;;5075027;28;20054;-47
2023/07/07 00:20:42;;;;;;;7.97;5.90;;;10.90;99.90;;;;;;5075350;28;20048;-47
2023/07/07 00:23:08;;;;;;;9.00;5.55;;;11.10;99.90;;;;;;5074311;28;20148;-48
2023/07/07 00:25:33;;;;;;;9.82;6.32;;;11.10;99.90;;;;;;5074086;28;20400;-47
2023/07/07 00:28:00;;;;;;;6.90;5.53;;;11.40;99.90;;;;;;5073693;28;20657;-49
2023/07/07 00:30:25;;;;;;;7.45;5.70;;;10.90;99.90;;;;;;5074558;28;20044;-48
2023/07/07 00:32:51;;;;;;;6.75;5.13;;;10.90;99.90;;;;;;5056760;28;20497;-46
2023/07/07 00:35:17;;;;;;;7.65;5.50;;;10.90;99.90;;;;;;5055452;28;20551;-46
2023/07/07 00:37:43;;;;;;;7.50;5.13;;;10.70;99.90;;;;;;5074032;28;20040;-45
2023/07/07 00:40:10;;;;;;;7.30;5.85;;;10.70;99.90;;;;;;5074529;28;20519;-50
2023/07/07 00:42:35;;;;;;;9.38;5.30;;;10.60;99.90;;;;;;5054979;28;20047;-49
2023/07/07 00:45:20;;;;;;;9.55;5.78;;;11.30;99.90;;;;;;5073543;28;20032;-47
2023/07/07 00:48:02;;;;;;;12.68;5.95;;;10.90;99.90;;;;;;5072975;28;20044;-50
2023/07/07 00:50:38;;;;;;;7.03;5.95;;;10.90;99.90;;;;;;5074620;28;20392;-47
2023/07/07 00:53:04;;;;;;;11.25;6.65;;;10.90;99.90;;;;;;5073859;28;20757;-51
2023/07/07 00:55:41;;;;;;;9.48;6.07;;;10.90;99.90;;;;;;5056193;28;20127;-47
2023/07/07 00:58:11;;;;;;;7.70;5.30;;;10.80;99.90;;;;;;5073356;28;20052;-50
2023/07/07 01:00:39;;;;;;;8.65;5.38;;;10.80;99.90;;;;;;5072797;28;20039;-51
2023/07/07 01:03:13;;;;;;;7.43;5.35;;;10.70;99.90;;;;;;5075205;28;21213;-50
2023/07/07 01:05:42;;;;;;;11.25;5.88;;;11.70;99.90;;;;;;5073605;28;20044;-52
2023/07/07 01:08:08;;;;;;;11.15;6.20;;;10.90;99.90;;;;;;5072846;28;20327;-46
2023/07/07 01:10:34;;;;;;;7.85;5.30;;;10.90;99.90;;;;;;5074423;28;20492;-51
2023/07/07 01:13:00;;;;;;;8.00;4.97;;;10.80;99.90;;;;;;5073177;28;20048;-49
2023/07/07 01:15:31;;;;;;;7.55;5.10;;;10.60;99.90;;;;;;5073781;28;20522;-51
2023/07/07 01:18:40;;;;;;;7.32;4.43;;;10.60;99.90;;;;;;5073566;28;20524;-49
2023/07/07 01:21:13;;;;;;;7.53;4.88;;;10.70;99.90;;;;;;5025098;28;20077;-49
2023/07/07 01:23:49;;;;;;;8.90;4.82;;;10.70;99.90;;;;;;5073758;28;20151;-46
2023/07/07 01:26:36;;;;;;;8.02;4.03;;;10.80;99.90;;;;;;5074570;28;20040;-50
2023/07/07 01:29:25;;;;;;;6.70;5.10;;;10.60;99.90;;;;;;5074191;28;20044;-45
2023/07/07 01:31:56;;;;;;;8.85;4.68;;;10.60;99.90;;;;;;5074304;28;20472;-51
2023/07/07 01:34:23;;;;;;;7.72;4.50;;;10.60;99.90;;;;;;5074128;28;20049;-46
2023/07/07 01:36:49;;;;;;;8.13;4.75;;;10.60;99.90;;;;;;5073959;28;20048;-51
2023/07/07 01:39:14;;;;;;;6.47;4.55;;;10.40;99.90;;;;;;5055332;28;20054;-46
2023/07/07 01:41:49;;;;;;;6.50;4.28;;;10.50;99.90;;;;;;5072866;28;20575;-50
2023/07/07 01:44:24;;;;;;;8.55;5.15;;;10.30;99.90;;;;;;5072808;28;20040;-47
2023/07/07 01:47:25;;;;;;;5.65;4.05;;;10.40;99.90;;;;;;5073442;28;20112;-48
2023/07/07 01:50:03;;;;;;;7.40;4.50;;;10.50;99.90;;;;;;5008481;28;20071;-46
2023/07/07 01:52:44;;;;;;;9.75;4.90;;;10.30;99.90;;;;;;5073318;28;20047;-46
2023/07/07 01:55:18;;;;;;;8.45;3.97;;;10.40;99.90;;;;;;5073202;28;20058;-46
2023/07/07 01:57:48;;;;;;;8.05;4.57;;;10.10;99.90;;;;;;5072318;28;20320;-46
2023/07/07 02:00:16;;;;;;;8.75;4.65;;;10.20;99.90;;;;;;5072708;28;20040;-46
2023/07/07 02:02:42;;;;;;;8.18;4.60;;;10.10;99.90;;;;;;5055094;28;20404;-47
2023/07/07 02:05:09;;;;;;;8.07;4.85;;;10.20;99.90;;;;;;5072162;28;20040;-49
2023/07/07 02:07:35;;;;;;;7.70;4.63;;;10.20;99.90;;;;;;5072018;28;20086;-47
2023/07/07 02:10:01;;;;;;;9.07;4.90;;;10.10;99.90;;;;;;5071762;28;20131;-51
2023/07/07 02:12:26;;;;;;;7.32;4.70;;;10.30;99.90;;;;;;5071910;28;20523;-48
2023/07/07 02:14:52;;;;;;;7.32;4.95;;;10.00;99.90;;;;;;5071696;28;20048;-46
2023/07/07 02:17:18;;;;;;;7.90;4.35;;;10.10;99.90;;;;;;5072265;28;20039;-47
2023/07/07 02:19:44;;;;;;;6.10;4.15;;;10.00;99.90;;;;;;5072578;28;20437;-47
2023/07/07 02:22:10;;;;;;;7.22;4.22;;;10.00;99.90;;;;;;5072283;28;20098;-47
2023/07/07 02:24:36;;;;;;;7.90;4.40;;;10.00;99.90;;;;;;5071770;28;20036;-46
2023/07/07 02:27:03;;;;;;;6.82;4.50;;;9.90;99.90;;;;;;5053279;28;20381;-51
2023/07/07 02:29:29;;;;;;;7.55;4.78;;;9.90;99.90;;;;;;5072597;28;20036;-50
2023/07/07 02:31:55;;;;;;;9.02;4.85;;;9.80;99.90;;;;;;5072279;28;20097;-47
2023/07/07 02:34:20;;;;;;;7.53;5.15;;;7.80;99.90;;;;;;5071661;28;20052;-51
2023/07/07 02:36:46;;;;;;;9.50;5.47;;;9.80;99.90;;;;;;5072610;28;20036;-46
2023/07/07 02:39:12;;;;;;;8.13;5.18;;;9.80;99.90;;;;;;5073092;28;20032;-49
2023/07/07 02:41:38;;;;;;;9.85;5.57;;;9.90;99.90;;;;;;5072988;28;20123;-48
2023/07/07 02:44:04;;;;;;;7.25;5.10;;;9.90;99.90;;;;;;5072057;28;20189;-46
2023/07/07 02:46:29;;;;;;;8.63;4.75;;;9.70;99.90;;;;;;5071623;28;20043;-50
2023/07/07 02:48:55;;;;;;;7.50;4.80;;;9.60;99.90;;;;;;5073713;28;20039;-48
2023/07/07 02:51:21;;;;;;;8.80;4.35;;;9.80;99.90;;;;;;5072346;28;20052;-45
2023/07/07 02:53:47;;;;;;;6.50;4.50;;;9.90;99.90;;;;;;5073180;28;20051;-48
2023/07/07 02:56:12;;;;;;;6.70;4.90;;;9.80;99.90;;;;;;5073449;28;20044;-46
2023/07/07 02:58:38;;;;;;;7.63;5.15;;;9.70;99.90;;;;;;5077342;28;20036;-45
2023/07/07 03:01:13;;;;;;;8.70;6.45;;;9.80;99.90;;;;;;5058123;28;20062;-47
2023/07/07 03:03:44;;;;;;;12.55;7.47;;;9.50;99.90;;;;;;5077591;28;20466;-45
2023/07/07 03:06:15;;;;;;;12.75;9.15;;;10.70;99.90;;;;;;5077033;28;20051;-48
2023/07/07 03:08:42;;;;;;;16.05;10.00;;;10.00;99.90;;;;;;5077347;28;20057;-46
2023/07/07 03:11:10;;;;;;;16.98;11.63;;;10.00;99.90;;;;;;5076707;28;20392;-46
2023/07/07 03:13:36;;;;;;;17.17;11.35;;;10.20;99.90;;;;;;5076246;28;20055;-46
2023/07/07 03:16:13;;;;;;;17.65;11.57;;;10.20;99.90;;;;;;5076002;28;20036;-46
2023/07/07 03:18:40;;;;;;;20.42;11.60;;;10.40;99.90;;;;;;5074254;28;20521;-48
2023/07/07 03:21:07;;;;;;;18.98;12.20;;;10.30;99.90;;;;;;5075223;28;20320;-48
2023/07/07 03:23:34;;;;;;;16.77;12.52;;;10.50;99.90;;;;;;5076001;28;20437;-46
2023/07/07 03:26:11;;;;;;;21.35;12.93;;;10.60;99.90;;;;;;5075772;28;20480;-46
2023/07/07 03:28:37;;;;;;;18.88;12.35;;;10.70;99.90;;;;;;5074709;28;20040;-47
2023/07/07 03:31:22;;;;;;;17.83;12.73;;;10.80;99.90;;;;;;5075857;28;20036;-45
2023/07/07 03:33:49;;;;;;;17.42;13.25;;;10.00;99.90;;;;;;5076409;28;20036;-46
2023/07/07 03:36:15;;;;;;;20.55;13.98;;;10.80;99.90;;;;;;5075636;28;20194;-47
2023/07/07 03:38:42;;;;;;;21.52;14.80;;;10.90;99.90;;;;;;5075768;28;20043;-48
2023/07/07 03:41:12;;;;;;;18.65;14.25;;;10.90;99.90;;;;;;5074835;28;20048;-47
2023/07/07 03:43:38;;;;;;;20.08;13.70;;;11.10;99.90;;;;;;5074808;28;20113;-47
2023/07/07 03:46:05;;;;;;;22.17;14.15;;;11.20;99.90;;;;;;5074926;28;20051;-51
2023/07/07 03:48:31;;;;;;;19.95;14.40;;;11.20;99.90;;;;;;5074415;28;20040;-48
2023/07/07 03:51:01;;;;;;;20.52;14.02;;;13.10;99.90;;;;;;5075527;28;20511;-50
2023/07/07 03:53:28;;;;;;;19.50;14.18;;;11.10;99.90;;;;;;5076917;28;20070;-47
2023/07/07 03:55:55;;;;;;;19.83;14.68;;;11.30;99.90;;;;;;5075310;28;20048;-47
2023/07/07 03:58:21;;;;;;;19.27;14.35;;;12.10;99.90;;;;;;5074276;28;20463;-51
2023/07/07 04:00:48;;;;;;;19.67;14.55;;;11.40;99.90;;;;;;5075034;28;20094;-46
2023/07/07 04:03:15;;;;;;;22.17;14.75;;;11.40;99.90;;;;;;5077225;28;20115;-48
2023/07/07 04:05:45;;;;;;;21.15;14.75;;;12.90;99.90;;;;;;5075978;28;20152;-50
2023/07/07 04:08:11;;;;;;;21.45;14.57;;;11.40;99.90;;;;;;5075126;28;20090;-50
2023/07/07 04:10:38;;;;;;;22.05;15.35;;;11.60;99.90;;;;;;5074601;28;20040;-49
2023/07/07 04:13:04;;;;;;;20.65;14.65;;;11.60;99.90;;;;;;5075006;28;20513;-50
2023/07/07 04:15:30;;;;;;;20.52;14.13;;;11.60;99.90;;;;;;5074874;28;20059;-49
2023/07/07 04:17:56;;;;;;;21.42;15.07;;;11.70;99.90;;;;;;5057422;28;20067;-50
2023/07/07 04:20:22;;;;;;;21.00;15.80;;;11.80;99.90;;;;;;5074939;28;20047;-50
2023/07/07 04:22:48;;;;;;;21.17;16.50;;;11.90;99.90;;;;;;5074559;28;20448;-52
2023/07/07 04:25:15;;;;;;;18.80;15.25;;;11.60;99.90;;;;;;5074786;28;20040;-50
2023/07/07 04:27:42;;;;;;;24.75;16.38;;;12.00;99.90;;;;;;5074580;28;20637;-50
2023/07/07 04:30:09;;;;;;;25.65;16.63;;;12.00;99.90;;;;;;5056031;28;20036;-48
2023/07/07 04:32:36;;;;;;;19.20;15.60;;;12.00;99.90;;;;;;5074416;28;20279;-49
2023/07/07 04:35:03;;;;;;;22.20;15.80;;;12.20;99.90;;;;;;5074047;28;20048;-51
2023/07/07 04:37:30;;;;;;;22.45;15.88;;;12.20;99.90;;;;;;5072864;28;20901;-48
2023/07/07 04:39:55;;;;;;;22.08;15.68;;;12.30;99.90;;;;;;5073250;28;20047;-49
2023/07/07 04:42:21;;;;;;;19.20;14.85;;;12.30;99.90;;;;;;5073119;28;20044;-52
2023/07/07 04:44:47;;;;;;;22.65;16.27;;;12.50;99.90;;;;;;5072679;28;20439;-52
2023/07/07 04:47:13;;;;;;;20.15;15.98;;;12.80;99.90;;;;;;5054973;28;20530;-52
2023/07/07 04:49:39;;;;;;;22.48;16.38;;;12.60;99.90;;;;;;5073167;28;20048;-50
2023/07/07 04:52:05;;;;;;;23.63;15.88;;;12.70;99.90;;;;;;5073023;28;20040;-50
2023/07/07 04:54:31;;;;;;;19.13;15.30;;;12.90;99.90;;;;;;5072802;28;20473;-51
2023/07/07 04:56:56;;;;;;;23.17;15.38;;;12.80;99.90;;;;;;5072923;28;20153;-53
2023/07/07 04:59:22;;;;;;;22.38;16.45;;;12.90;99.90;;;;;;5073235;28;20040;-50
2023/07/07 05:01:48;;;;;;;20.23;15.25;;;13.20;99.90;;;;;;5073180;28;20119;-51
2023/07/07 05:04:15;;;;;;;23.95;16.10;;;13.20;99.90;;;;;;5073398;28;20136;-49
2023/07/07 05:06:41;;;;;;;18.27;15.05;;;13.30;99.90;;;;;;5072702;28;20056;-51
2023/07/07 05:09:08;;;;;;;20.20;15.52;;;13.50;99.90;;;;;;5072688;28;20050;-49
2023/07/07 05:11:35;;;;;;;19.60;15.73;;;13.50;99.90;;;;;;5073484;28;20044;-50
2023/07/07 05:14:01;;;;;;;20.08;15.80;;;13.70;99.90;;;;;;5072306;28;20357;-50
2023/07/07 05:16:34;;;;;;;21.45;14.90;;;13.70;99.90;;;;;;5071952;28;20539;-47
2023/07/07 05:19:00;;;;;;;19.35;15.35;;;13.90;99.90;;;;;;5071083;28;20075;-47
2023/07/07 05:21:26;;;;;;;18.50;15.52;;;13.90;99.90;;;;;;5072729;28;20719;-48
2023/07/07 05:23:53;;;;;;;21.08;15.43;;;14.00;99.90;;;;;;5072841;28;20576;-49
2023/07/07 05:26:20;;;;;;;19.77;15.63;;;14.10;99.90;;;;;;5073183;28;20051;-48
2023/07/07 05:28:45;;;;;;;20.23;14.35;;;14.10;99.90;;;;;;5054030;28;20051;-47
2023/07/07 05:31:11;;;;;;;23.58;14.85;;;14.40;99.90;;;;;;5072928;28;20032;-48
2023/07/07 05:33:38;;;;;;;19.15;13.48;;;14.50;99.90;;;;;;5073536;28;20179;-52
2023/07/07 05:36:08;;;;;;;18.48;13.48;;;14.60;99.90;;;;;;5073186;28;20052;-46
2023/07/07 05:38:34;;;;;;;19.77;14.10;;;15.00;99.90;;;;;;5072561;28;20893;-50
2023/07/07 05:41:00;;;;;;;18.25;13.35;;;14.90;99.90;;;;;;5071044;28;20052;-49
2023/07/07 05:43:26;;;;;;;20.35;14.27;;;15.00;99.90;;;;;;5071496;28;20493;-46
2023/07/07 05:46:08;;;;;;;17.98;12.98;;;14.90;99.90;;;;;;5073674;28;20127;-50
2023/07/07 05:48:34;;;;;;;14.43;12.50;;;15.40;99.90;;;;;;5072742;28;20180;-49
2023/07/07 05:51:03;;;;;;;18.65;12.73;;;15.40;99.90;;;;;;5073148;28;20059;-47
2023/07/07 05:53:29;;;;;;;21.35;12.98;;;15.50;99.90;;;;;;5073599;28;20079;-50
2023/07/07 05:56:08;;;;;;;14.95;11.77;;;15.40;99.90;;;;;;5054162;28;20267;-48
2023/07/07 05:58:35;;;;;;;16.58;11.75;;;15.70;99.90;;;;;;5072441;28;20565;-48
2023/07/07 06:01:05;;;;;;;17.30;11.98;;;15.90;99.90;;;;;;5072954;28;20067;-50
2023/07/07 06:03:31;;;;;;;16.50;12.02;;;15.70;99.90;;;;;;5073694;28;20059;-49
2023/07/07 06:05:57;;;;;;;18.95;12.50;;;16.00;99.90;;;;;;5056147;28;20036;-47
2023/07/07 06:08:23;;;;;;;15.60;12.10;;;16.10;99.90;;;;;;5072202;28;20423;-49
2023/07/07 06:10:49;;;;;;;19.15;11.35;;;16.30;99.90;;;;;;5073057;28;20044;-46
2023/07/07 06:13:17;;;;;;;16.77;11.43;;;16.30;99.90;;;;;;5073296;28;20032;-52
2023/07/07 06:15:43;;;;;;;15.43;11.10;;;16.40;99.90;;;;;;5072849;28;20595;-47
2023/07/07 06:18:09;;;;;;;15.13;10.05;;;16.60;99.90;;;;;;5071884;28;20341;-47
2023/07/07 06:20:35;;;;;;;13.77;10.82;;;16.80;99.90;;;;;;5072631;28;20124;-47
2023/07/07 06:23:01;;;;;;;15.20;11.07;;;17.00;99.90;;;;;;5072377;28;20051;-47
2023/07/07 06:25:27;;;;;;;12.95;10.07;;;17.30;99.90;;;;;;5072989;28;20165;-48
2023/07/07 06:27:52;;;;;;;15.77;10.70;;;17.80;99.90;;;;;;5073627;28;20086;-47
2023/07/07 06:30:18;;;;;;;14.23;9.60;;;18.00;99.90;;;;;;5073047;28;20284;-49
2023/07/07 06:32:44;;;;;;;12.95;9.05;;;18.10;99.90;;;;;;5076495;28;20074;-49
2023/07/07 06:35:10;;;;;;;14.07;9.20;;;18.30;99.90;;;;;;5057953;28;20040;-47
2023/07/07 06:37:35;;;;;;;15.57;8.98;;;18.80;99.90;;;;;;5076033;28;20230;-49
2023/07/07 06:40:01;;;;;;;15.20;9.10;;;19.30;99.90;;;;;;5076142;28;20378;-49
2023/07/07 06:42:27;;;;;;;12.30;8.48;;;19.20;99.90;;;;;;5075743;28;21265;-47
2023/07/07 06:44:53;;;;;;;12.48;8.90;;;19.10;99.90;;;;;;5075274;28;20032;-47
2023/07/07 06:47:18;;;;;;;13.75;8.43;;;19.00;99.90;;;;;;5075186;28;20059;-51
2023/07/07 06:49:44;;;;;;;16.67;8.80;;;19.10;99.90;;;;;;5075724;28;20486;-47
2023/07/07 06:52:10;;;;;;;14.35;9.05;;;19.10;99.90;;;;;;5075017;28;20078;-47
2023/07/07 06:54:36;;;;;;;11.38;8.20;;;19.40;99.90;;;;;;5056639;28;20046;-52
2023/07/07 06:57:02;;;;;;;11.25;8.10;;;20.10;99.90;;;;;;5075615;28;20044;-51
2023/07/07 06:59:27;;;;;;;13.02;7.97;;;20.30;99.90;;;;;;5076076;28;20032;-46
2023/07/07 07:01:53;;;;;;;11.00;7.85;;;20.10;99.90;;;;;;5074307;28;20512;-49
2023/07/07 07:04:19;;;;;;;11.10;7.03;;;20.40;99.90;;;;;;5076175;28;20040;-47
2023/07/07 07:06:45;;;;;;;10.07;7.50;;;20.60;99.90;;;;;;5073225;28;20702;-47
2023/07/07 07:09:11;;;;;;;11.63;7.05;;;20.60;99.90;;;;;;5074269;28;20044;-48
2023/07/07 07:11:37;;;;;;;11.15;7.18;;;20.70;99.90;;;;;;5074728;28;20047;-48
2023/07/07 07:14:03;;;;;;;10.90;5.55;;;20.70;99.90;;;;;;5075832;28;20402;-50
2023/07/07 07:16:28;;;;;;;13.93;7.00;;;21.40;99.90;;;;;;5075781;28;20051;-52
2023/07/07 07:18:54;;;;;;;10.13;6.10;;;22.10;99.90;;;;;;5074486;28;20044;-51
2023/07/07 07:21:20;;;;;;;12.50;5.97;;;23.50;99.90;;;;;;5075443;28;20051;-51
2023/07/07 07:23:46;;;;;;;8.48;4.80;;;24.20;99.90;;;;;;5075888;28;20109;-52
2023/07/07 07:26:12;;;;;;;12.43;4.68;;;25.10;99.90;;;;;;5074742;28;20052;-51
2023/07/07 07:28:38;;;;;;;12.27;5.05;;;26.30;99.90;;;;;;5074570;28;20404;-53
2023/07/07 07:31:03;;;;;;;7.95;3.88;;;27.10;99.90;;;;;;5074899;28;20047;-54
2023/07/07 07:33:29;;;;;;;7.35;4.20;;;27.80;99.90;;;;;;5076427;28;20330;-51
2023/07/07 07:35:55;;;;;;;9.63;4.53;;;28.70;99.90;;;;;;5075852;28;20036;-52
2023/07/07 07:38:21;;;;;;;9.27;4.18;;;29.10;99.90;;;;;;5075411;28;20036;-51
2023/07/07 07:40:50;;;;;;;15.60;5.07;;;29.00;99.90;;;;;;5075591;28;20457;-53
2023/07/07 07:43:15;;;;;;;9.25;3.80;;;29.60;99.90;;;;;;5074902;28;20048;-54
2023/07/07 07:45:41;;;;;;;8.68;3.50;;;30.00;99.90;;;;;;5075381;28;20032;-52
2023/07/07 07:48:07;;;;;;;8.02;3.80;;;30.20;99.90;;;;;;5056711;28;20550;-52
2023/07/07 07:50:33;;;;;;;6.03;3.50;;;30.70;99.90;;;;;;5041699;28;20560;-53
2023/07/07 07:52:59;;;;;;;7.93;3.22;;;31.00;99.90;;;;;;5076174;28;20044;-48
2023/07/07 07:55:26;;;;;;;7.40;3.20;;;31.20;99.90;;;;;;5076401;28;20123;-53
2023/07/07 07:57:52;;;;;;;8.38;3.20;;;31.00;99.90;;;;;;5074450;28;20051;-52
2023/07/07 08:00:18;;;;;;;7.65;2.63;;;31.20;99.90;;;;;;5074521;28;20096;-51
2023/07/07 08:02:44;;;;;;;5.85;2.67;;;31.20;99.90;;;;;;5074340;28;20089;-52
2023/07/07 08:05:11;;;;;;;6.03;2.80;;;31.30;99.90;;;;;;5074855;28;20113;-53
2023/07/07 08:07:38;;;;;;;7.40;2.90;;;31.50;99.90;;;;;;5073317;28;20554;-53
2023/07/07 08:10:04;;;;;;;7.72;3.38;;;31.50;99.90;;;;;;5073533;28;20087;-50
2023/07/07 08:12:30;;;;;;;7.28;3.20;;;31.60;99.90;;;;;;5075223;28;20036;-52
2023/07/07 08:14:56;;;;;;;5.90;2.60;;;31.40;99.90;;;;;;5074287;28;20134;-53
2023/07/07 08:17:21;;;;;;;5.18;2.40;;;31.80;99.70;;;;;;5073933;28;20048;-50
2023/07/07 08:19:47;;;;;;;4.95;2.33;;;31.60;99.90;;;;;;5073124;28;20040;-53
2023/07/07 08:22:16;;;;;;;6.20;2.75;;;31.70;99.90;;;;;;5074259;28;20790;-54
2023/07/07 08:24:47;;;;;;;5.93;2.92;;;31.90;99.90;;;;;;5074840;28;20462;-52
2023/07/07 08:27:13;;;;;;;8.60;2.95;;;31.80;99.60;;;;;;5073847;28;20082;-50
2023/07/07 08:29:40;;;;;;;5.15;2.20;;;31.50;99.20;;;;;;5073776;28;20126;-53
2023/07/07 08:32:07;;;;;;;6.85;2.47;;;31.50;99.70;;;;;;5073840;28;20396;-51
2023/07/07 08:34:33;;;;;;;7.22;2.25;;;31.60;99.20;;;;;;5074449;28;20461;-54
2023/07/07 08:36:59;;;;;;;6.47;2.15;;;31.40;98.40;;;;;;5074388;28;20040;-51
2023/07/07 08:39:28;;;;;;;5.47;2.00;;;31.20;99.20;;;;;;5074103;28;20040;-53
2023/07/07 08:42:06;;;;;;;4.72;2.13;;;31.50;99.70;;;;;;5073165;28;20042;-52
2023/07/07 08:44:35;;;;;;;5.90;2.30;;;31.60;98.60;;;;;;5074386;28;20036;-51
2023/07/07 08:47:28;;;;;;;4.82;1.90;;;31.00;98.60;;;;;;5073446;28;20128;-53
2023/07/07 08:50:25;;;;;;;8.25;2.00;;;29.90;97.70;;;;;;5073008;28;20067;-54
2023/07/07 08:53:21;;;;;;;6.30;2.00;;;28.80;99.40;;;;;;5072645;28;20449;-51
2023/07/07 08:55:54;;;;;;;4.32;1.80;;;28.50;99.00;;;;;;5074241;28;20037;-52
2023/07/07 08:58:44;;;;;;;11.30;3.30;;;28.40;98.30;;;;;;5075679;28;20467;-51
2023/07/07 09:01:23;;;;;;;6.80;2.30;;;28.50;99.50;;;;;;5055714;28;20109;-51
2023/07/07 09:04:24;;;;;;;6.28;1.90;;;28.30;99.90;;;;;;5073832;28;20736;-49
2023/07/07 09:07:08;;;;;;;4.53;2.08;;;28.50;99.30;;;;;;5060338;28;20044;-51
2023/07/07 09:10:10;;;;;;;5.07;1.90;;;28.70;99.90;;;;;;5073210;28;20080;-52
2023/07/07 09:13:07;;;;;;;6.25;2.20;;;28.50;97.50;;;;;;5074006;28;20031;-49
2023/07/07 09:15:39;;;;;;;4.88;2.08;;;28.50;97.00;;;;;;5065498;28;20051;-50
2023/07/07 09:18:18;;;;;;;7.20;2.42;;;28.70;99.40;;;;;;5071207;28;20126;-50
2023/07/07 09:20:51;;;;;;;5.10;1.98;;;28.50;99.50;;;;;;5073914;28;20039;-48
2023/07/07 09:23:20;;;;;;;4.70;2.10;;;28.50;99.10;;;;;;5073159;28;20527;-52
2023/07/07 09:25:57;;;;;;;6.82;2.30;;;28.30;99.80;;;;;;5073336;28;20106;-49
2023/07/07 09:28:27;;;;;;;5.35;2.05;;;28.20;99.90;;;;;;5072465;28;20044;-49
2023/07/07 09:31:30;;;;;;;4.75;1.98;;;27.70;98.70;;;;;;5072601;28;20074;-51
2023/07/07 09:33:59;;;;;;;5.07;2.00;;;27.40;99.60;;;;;;5059197;28;20052;-47
2023/07/07 09:36:28;;;;;;;6.15;2.50;;;27.20;99.90;;;;;;5074130;28;20047;-48
2023/07/07 09:38:59;;;;;;;4.05;2.22;;;27.50;99.60;;;;;;5072286;28;20496;-48
2023/07/07 09:41:28;;;;;;;5.00;2.10;;;26.90;99.70;;;;;;5072013;28;20626;-49
2023/07/07 09:44:17;;;;;;;4.18;1.88;;;26.50;99.90;;;;;;5072111;28;20452;-51
2023/07/07 09:46:58;;;;;;;5.05;1.90;;;26.30;99.90;;;;;;5072538;28;20105;-50
2023/07/07 09:49:54;;;;;;;5.10;2.20;;;26.30;99.90;;;;;;5072192;28;20516;-51
2023/07/07 09:52:56;;;;;;;5.95;2.33;;;26.00;99.90;;;;;;5071997;28;20044;-48
2023/07/07 09:55:26;;;;;;;5.38;2.10;;;26.30;99.90;;;;;;5030039;28;20457;-47
2023/07/07 09:58:22;;;;;;;4.60;2.20;;;26.30;99.90;;;;;;5073142;28;20040;-53
2023/07/07 10:00:54;;;;;;;6.78;2.30;;;26.30;99.40;;;;;;5071708;28;20040;-47
2023/07/07 10:06:47;;;;;;;4.28;2.15;;;26.60;99.70;;;;;;5078743;28;20040;-46
2023/07/07 10:09:14;;;;;;;5.50;2.13;;;26.30;99.90;;;;;;5078513;28;20064;-46
2023/07/07 10:11:41;;;;;;;5.53;2.50;;;26.20;99.90;;;;;;5080368;28;20040;-50
2023/07/07 10:14:11;;;;;;;7.75;2.10;;;26.40;99.90;;;;;;5080086;28;20072;-48
2023/07/07 10:16:57;;;;;;;6.32;2.15;;;26.30;99.90;;;;;;5080325;28;20047;-47
2023/07/07 10:19:24;;;;;;;4.22;1.85;;;26.30;99.30;;;;;;5080824;28;20459;-50
2023/07/07 10:21:50;;;;;;;5.75;1.95;;;26.50;99.90;;;;;;5060895;28;20040;-49
2023/07/07 10:24:16;;;;;;;5.07;1.92;;;26.70;99.90;;;;;;5060915;28;20508;-52
2023/07/07 10:26:47;;;;;;;3.97;1.80;;;26.80;99.90;;;;;;5078865;28;21467;-52
2023/07/07 10:29:23;;;;;;;5.88;2.35;;;26.90;99.90;;;;;;5079218;28;20128;-48
2023/07/07 10:31:50;;;;;;;5.32;2.17;;;26.90;99.90;;;;;;5079411;28;21323;-51
2023/07/07 10:34:40;;;;;;;5.68;1.95;;;27.40;99.90;;;;;;5079812;28;20063;-52
2023/07/07 10:37:18;;;;;;;4.70;2.00;;;27.50;99.90;;;;;;5078990;28;20043;-50
2023/07/07 10:39:48;;;;;;;7.45;2.28;;;26.70;99.50;;;;;;5077553;28;20036;-50
2023/07/07 10:42:13;;;;;;;6.10;2.05;;;27.40;99.90;;;;;;5077692;28;20048;-52
2023/07/07 10:44:39;;;;;;;4.18;2.05;;;27.50;99.90;;;;;;5077578;28;20044;-52
2023/07/07 10:47:05;;;;;;;4.97;2.25;;;27.50;99.90;;;;;;5079052;28;20061;-52
2023/07/07 10:49:31;;;;;;;4.97;2.13;;;27.60;99.90;;;;;;5077075;28;20189;-52
2023/07/07 10:51:59;;;;;;;5.55;2.20;;;27.70;99.90;;;;;;5078437;28;20136;-49
2023/07/07 10:54:41;;;;;;;5.25;2.10;;;27.90;99.90;;;;;;5077793;28;20105;-51
2023/07/07 10:57:59;;;;;;;6.90;2.28;;;28.10;99.90;;;;;;5078832;28;20048;-51
2023/07/07 11:00:46;;;;;;;4.65;1.80;;;27.90;98.90;;;;;;5078541;28;20035;-53
2023/07/07 11:03:31;;;;;;;6.88;2.20;;;28.00;99.90;;;;;;5078486;28;20044;-53
2023/07/07 11:06:18;;;;;;;5.28;2.30;;;28.10;99.90;;;;;;5078841;28;20040;-48
2023/07/07 11:09:13;;;;;;;5.70;1.70;;;27.90;98.90;;;;;;5078024;28;20124;-52
2023/07/07 11:12:19;;;;;;;8.27;2.45;;;27.80;98.30;;;;;;5059794;28;20524;-53
2023/07/07 11:15:00;;;;;;;5.43;2.20;;;27.60;98.50;;;;;;5078540;28;20043;-52
2023/07/07 11:17:41;;;;;;;5.70;2.28;;;27.50;97.80;;;;;;5076631;28;20048;-53
2023/07/07 11:20:15;;;;;;;4.10;1.95;;;27.50;97.40;;;;;;5074247;28;20036;-51
2023/07/07 11:23:02;;;;;;;4.00;1.90;;;27.70;97.60;;;;;;5075534;28;20036;-50
2023/07/07 11:25:46;;;;;;;4.22;2.10;;;27.20;98.50;;;;;;5074296;28;20131;-49
2023/07/07 11:28:30;;;;;;;5.28;2.25;;;27.30;98.90;;;;;;5075962;28;20124;-52
2023/07/07 11:31:21;;;;;;;6.18;2.40;;;27.30;98.80;;;;;;5075165;28;20529;-51
2023/07/07 11:34:04;;;;;;;4.00;1.90;;;27.70;99.70;;;;;;5075036;28;20112;-53
2023/07/07 11:36:39;;;;;;;7.30;2.92;;;27.80;99.20;;;;;;5075812;28;20461;-50
2023/07/07 11:39:28;;;;;;;6.28;2.10;;;28.10;99.10;;;;;;5075386;28;20098;-49
2023/07/07 11:42:21;;;;;;;7.43;2.20;;;27.80;99.90;;;;;;5075316;28;20044;-53
2023/07/07 11:45:08;;;;;;;7.28;2.47;;;28.10;99.40;;;;;;5076421;28;20051;-51
2023/07/07 11:48:04;;;;;;;6.63;2.38;;;28.10;98.60;;;;;;5076298;28;20039;-51
2023/07/07 11:50:36;;;;;;;5.85;2.30;;;28.00;98.00;;;;;;5076164;28;20840;-52
2023/07/07 11:53:23;;;;;;;5.22;2.10;;;27.80;97.30;;;;;;5075251;28;20093;-56
2023/07/07 11:56:24;;;;;;;5.95;2.28;;;27.70;98.70;;;;;;5074203;28;20058;-56
2023/07/07 11:59:07;;;;;;;5.15;2.45;;;27.70;99.10;;;;;;5074788;28;20036;-56
2023/07/07 12:01:37;;;;;;;4.55;1.98;;;27.80;98.90;;;;;;5074527;28;20507;-57
2023/07/07 12:04:12;;;;;;;5.05;2.22;;;27.80;99.40;;;;;;5073641;28;20040;-56
2023/07/07 12:07:03;;;;;;;4.30;1.90;;;28.00;99.50;;;;;;5076733;28;20046;-56
2023/07/07 12:09:45;;;;;;;7.10;3.25;;;28.10;99.90;;;;;;5035123;28;20568;-56
2023/07/07 12:12:27;;;;;;;7.13;2.83;;;28.00;98.00;;;;;;5034306;28;20084;-56
2023/07/07 12:15:07;;;;;;;7.20;2.50;;;28.20;99.00;;;;;;5034700;28;20080;-57
2023/07/07 12:17:40;;;;;;;6.47;2.30;;;28.10;98.60;;;;;;5034407;28;20037;-55
2023/07/07 12:20:15;;;;;;;5.47;2.38;;;28.20;99.90;;;;;;5034367;28;20079;-56
2023/07/07 12:22:43;;;;;;;5.53;2.03;;;28.20;99.90;;;;;;5034845;28;20072;-56
2023/07/07 12:25:12;;;;;;;5.47;2.20;;;28.30;99.90;;;;;;5034312;28;20049;-56
2023/07/07 12:27:46;;;;;;;5.55;2.30;;;28.30;99.70;;;;;;5034770;28;20059;-56
2023/07/07 12:30:24;;;;;;;5.97;2.70;;;27.20;99.30;;;;;;5035553;28;20040;-56
2023/07/07 12:32:51;;;;;;;6.25;2.35;;;28.60;98.40;;;;;;5034681;28;20868;-56
2023/07/07 12:35:25;;;;;;;7.28;2.38;;;28.50;99.30;;;;;;5034555;28;20178;-56
2023/07/07 12:37:52;;;;;;;4.60;2.20;;;28.10;99.00;;;;;;5034615;28;20044;-56
2023/07/07 12:40:19;;;;;;;5.78;2.53;;;27.60;98.40;;;;;;5034731;28;20406;-56
2023/07/07 12:42:49;;;;;;;5.82;2.28;;;26.90;99.40;;;;;;5035119;28;20600;-57
2023/07/07 12:45:31;;;;;;;11.55;2.50;;;26.70;99.70;;;;;;5035226;28;20047;-57
2023/07/07 12:48:21;;;;;;;5.43;2.28;;;26.90;99.60;;;;;;5034194;28;20040;-56
2023/07/07 12:50:48;;;;;;;4.05;2.17;;;27.20;99.30;;;;;;5035657;28;20041;-53
2023/07/07 12:53:41;;;;;;;5.13;2.25;;;27.10;98.80;;;;;;5034872;28;20049;-55
2023/07/07 12:56:07;;;;;;;6.40;2.20;;;27.20;98.50;;;;;;5033823;28;20918;-54
2023/07/07 12:58:38;;;;;;;5.82;2.28;;;27.10;99.30;;;;;;5034656;28;20591;-53
2023/07/07 13:01:15;;;;;;;5.32;2.05;;;27.40;99.30;;;;;;5032055;28;20541;-53
2023/07/07 13:03:55;;;;;;;4.88;2.20;;;27.50;98.20;;;;;;5033809;28;20037;-55
2023/07/07 13:06:36;;;;;;;5.00;2.05;;;27.50;97.50;;;;;;5034737;28;20072;-55